sensor_id;sensor_type;location;lat;lon;timestamp;pressure;altitude;pressure_sealevel;temperature;humidity
141;BME280;65;48.778;9.160;2023-04-25T00:00:53;97937.16;;;8.76;83.99
141;BME280;65;48.778;9.160;2023-04-25T00:03:39;97935.19;;;8.79;84.84
141;BME280;65;48.778;9.160;2023-04-25T00:06:25;97929.06;;;8.79;85.25
141;BME280;65;48.778;9.160;2023-04-25T00:09:11;97926.78;;;8.73;84.99
141;BME280;65;48.778;9.160;2023-04-25T00:11:57;97923.22;;;8.74;86.47
141;BME280;65;48.778;9.160;2023-04-25T00:14:43;97928.44;;;8.60;87.58
141;BME280;65;48.778;9.160;2023-04-25T00:17:29;97922.78;;;8.51;88.90
141;BME280;65;48.778;9.160;2023-04-25T00:20:15;97915.91;;;8.49;90.49
141;BME280;65;48.778;9.160;2023-04-25T00:23:01;97916.94;;;8.46;90.39
141;BME280;65;48.778;9.160;2023-04-25T00:25:47;97917.41;;;8.53;87.53
141;BME280;65;48.778;9.160;2023-04-25T00:28:34;97925.13;;;8.56;87.28
141;BME280;65;48.778;9.160;2023-04-25T00:31:19;97909.59;;;8.51;86.85
141;BME280;65;48.778;9.160;2023-04-25T00:34:08;97917.22;;;8.42;89.77
141;BME280;65;48.778;9.160;2023-04-25T00:36:54;97913.91;;;8.38;88.91
141;BME280;65;48.778;9.160;2023-04-25T00:39:40;97912.22;;;8.37;88.28
141;BME280;65;48.778;9.160;2023-04-25T00:42:26;97904.97;;;8.41;87.33
141;BME280;65;48.778;9.160;2023-04-25T00:45:13;97909.31;;;8.42;88.98
141;BME280;65;48.778;9.160;2023-04-25T00:48:03;97906.00;;;8.38;91.96
141;BME280;65;48.778;9.160;2023-04-25T00:50:57;97905.44;;;8.33;92.22
141;BME280;65;48.778;9.160;2023-04-25T00:53:42;97900.31;;;8.30;90.71
141;BME280;65;48.778;9.160;2023-04-25T00:56:28;97900.50;;;8.27;91.05
141;BME280;65;48.778;9.160;2023-04-25T00:59:15;97898.38;;;8.34;90.35
141;BME280;65;48.778;9.160;2023-04-25T01:02:00;97905.16;;;8.38;89.82
141;BME280;65;48.778;9.160;2023-04-25T01:04:48;97896.22;;;8.40;89.49
141;BME280;65;48.778;9.160;2023-04-25T01:07:34;97893.50;;;8.42;88.19
141;BME280;65;48.778;9.160;2023-04-25T01:10:20;97890.03;;;8.41;88.35
141;BME280;65;48.778;9.160;2023-04-25T01:13:06;97892.38;;;8.46;89.99
141;BME280;65;48.778;9.160;2023-04-25T01:15:52;97889.19;;;8.41;91.44
141;BME280;65;48.778;9.160;2023-04-25T01:18:40;97896.22;;;8.40;92.26
141;BME280;65;48.778;9.160;2023-04-25T01:21:26;97892.84;;;8.38;92.04
141;BME280;65;48.778;9.160;2023-04-25T01:24:13;97888.34;;;8.40;93.08
141;BME280;65;48.778;9.160;2023-04-25T01:27:00;97880.72;;;8.36;92.46
141;BME280;65;48.778;9.160;2023-04-25T01:29:46;97878.31;;;8.31;92.43
141;BME280;65;48.778;9.160;2023-04-25T01:32:33;97877.75;;;8.26;93.86
141;BME280;65;48.778;9.160;2023-04-25T01:35:24;97871.72;;;8.24;92.38
141;BME280;65;48.778;9.160;2023-04-25T01:38:11;97881.22;;;8.27;92.61
141;BME280;65;48.778;9.160;2023-04-25T01:40:57;97882.34;;;8.22;92.94
141;BME280;65;48.778;9.160;2023-04-25T01:43:43;97880.28;;;8.28;92.31
141;BME280;65;48.778;9.160;2023-04-25T01:46:30;97884.38;;;8.33;91.69
141;BME280;65;48.778;9.160;2023-04-25T01:49:16;97880.34;;;8.42;92.07
141;BME280;65;48.778;9.160;2023-04-25T01:52:01;97876.00;;;8.41;91.59
141;BME280;65;48.778;9.160;2023-04-25T01:54:48;97875.25;;;8.39;92.68
141;BME280;65;48.778;9.160;2023-04-25T01:57:35;97881.19;;;8.42;90.69
141;BME280;65;48.778;9.160;2023-04-25T02:00:21;97876.78;;;8.43;90.86
141;BME280;65;48.778;9.160;2023-04-25T02:03:07;97878.28;;;8.47;90.77
141;BME280;65;48.778;9.160;2023-04-25T02:05:53;97870.09;;;8.51;90.04
141;BME280;65;48.778;9.160;2023-04-25T02:08:39;97876.59;;;8.46;91.04
141;BME280;65;48.778;9.160;2023-04-25T02:11:25;97873.59;;;8.52;90.87
141;BME280;65;48.778;9.160;2023-04-25T02:14:10;97871.03;;;8.50;89.86
141;BME280;65;48.778;9.160;2023-04-25T02:16:56;97870.38;;;8.47;89.81
141;BME280;65;48.778;9.160;2023-04-25T02:19:42;97874.91;;;8.45;90.70
141;BME280;65;48.778;9.160;2023-04-25T02:22:28;97877.81;;;8.40;91.72
141;BME280;65;48.778;9.160;2023-04-25T02:25:16;97868.56;;;8.33;92.93
141;BME280;65;48.778;9.160;2023-04-25T02:28:02;97862.31;;;8.20;93.46
141;BME280;65;48.778;9.160;2023-04-25T02:30:48;97858.59;;;8.08;95.25
141;BME280;65;48.778;9.160;2023-04-25T02:33:33;97862.69;;;7.98;97.37
141;BME280;65;48.778;9.160;2023-04-25T02:36:19;97866.63;;;7.91;97.45
141;BME280;65;48.778;9.160;2023-04-25T02:39:05;97857.97;;;7.89;97.21
141;BME280;65;48.778;9.160;2023-04-25T02:41:52;97858.13;;;7.86;97.05
141;BME280;65;48.778;9.160;2023-04-25T02:44:37;97852.69;;;7.89;96.89
141;BME280;65;48.778;9.160;2023-04-25T02:47:23;97853.28;;;7.94;94.51
141;BME280;65;48.778;9.160;2023-04-25T02:50:09;97843.97;;;7.88;95.35
141;BME280;65;48.778;9.160;2023-04-25T02:52:55;97845.66;;;7.89;95.33
141;BME280;65;48.778;9.160;2023-04-25T02:55:40;97852.44;;;7.93;95.13
141;BME280;65;48.778;9.160;2023-04-25T02:58:26;97848.56;;;7.85;95.21
141;BME280;65;48.778;9.160;2023-04-25T03:01:12;97850.03;;;7.75;95.72
141;BME280;65;48.778;9.160;2023-04-25T03:03:58;97857.59;;;7.65;96.44
141;BME280;65;48.778;9.160;2023-04-25T03:06:43;97855.91;;;7.64;96.76
141;BME280;65;48.778;9.160;2023-04-25T03:09:29;97863.44;;;7.70;96.01
141;BME280;65;48.778;9.160;2023-04-25T03:12:46;97855.78;;;7.81;94.14
141;BME280;65;48.778;9.160;2023-04-25T03:15:32;97845.66;;;7.89;91.99
141;BME280;65;48.778;9.160;2023-04-25T03:18:18;97840.13;;;7.94;91.11
141;BME280;65;48.778;9.160;2023-04-25T03:21:03;97843.78;;;7.91;92.55
141;BME280;65;48.778;9.160;2023-04-25T03:23:49;97838.69;;;7.88;92.93
141;BME280;65;48.778;9.160;2023-04-25T03:26:35;97835.72;;;7.94;90.28
141;BME280;65;48.778;9.160;2023-04-25T03:29:21;97839.91;;;7.83;93.13
141;BME280;65;48.778;9.160;2023-04-25T03:32:09;97837.53;;;7.78;93.04
141;BME280;65;48.778;9.160;2023-04-25T03:34:55;97837.03;;;7.72;92.74
141;BME280;65;48.778;9.160;2023-04-25T03:37:41;97845.47;;;7.63;92.69
141;BME280;65;48.778;9.160;2023-04-25T03:40:30;97843.28;;;7.55;94.01
141;BME280;65;48.778;9.160;2023-04-25T03:43:16;97849.59;;;7.51;93.09
141;BME280;65;48.778;9.160;2023-04-25T03:46:02;97847.91;;;7.50;93.40
141;BME280;65;48.778;9.160;2023-04-25T03:48:47;97846.84;;;7.54;93.55
141;BME280;65;48.778;9.160;2023-04-25T03:51:33;97856.06;;;7.61;93.27
141;BME280;65;48.778;9.160;2023-04-25T03:54:19;97851.22;;;7.69;94.16
141;BME280;65;48.778;9.160;2023-04-25T03:57:05;97837.97;;;7.71;93.75
141;BME280;65;48.778;9.160;2023-04-25T03:59:50;97832.06;;;7.67;93.53
141;BME280;65;48.778;9.160;2023-04-25T04:02:36;97844.44;;;7.65;92.63
141;BME280;65;48.778;9.160;2023-04-25T04:05:22;97841.31;;;7.58;93.78
141;BME280;65;48.778;9.160;2023-04-25T04:08:08;97842.56;;;7.51;94.73
141;BME280;65;48.778;9.160;2023-04-25T04:10:54;97843.94;;;7.43;94.84
141;BME280;65;48.778;9.160;2023-04-25T04:13:40;97845.56;;;7.29;96.93
141;BME280;65;48.778;9.160;2023-04-25T04:16:25;97841.50;;;7.24;97.41
141;BME280;65;48.778;9.160;2023-04-25T04:19:11;97848.00;;;7.17;98.55
141;BME280;65;48.778;9.160;2023-04-25T04:21:57;97846.16;;;7.19;98.77
141;BME280;65;48.778;9.160;2023-04-25T04:24:43;97854.47;;;7.27;98.76
141;BME280;65;48.778;9.160;2023-04-25T04:27:31;97850.47;;;7.36;96.55
141;BME280;65;48.778;9.160;2023-04-25T04:30:17;97846.91;;;7.37;98.51
141;BME280;65;48.778;9.160;2023-04-25T04:33:03;97838.25;;;7.35;98.43
141;BME280;65;48.778;9.160;2023-04-25T04:35:50;97861.91;;;7.35;98.08
141;BME280;65;48.778;9.160;2023-04-25T04:38:37;97862.41;;;7.41;97.33
141;BME280;65;48.778;9.160;2023-04-25T04:41:23;97856.34;;;7.56;97.70
141;BME280;65;48.778;9.160;2023-04-25T04:44:09;97863.34;;;7.72;96.21
141;BME280;65;48.778;9.160;2023-04-25T04:46:55;97866.47;;;7.78;96.98
141;BME280;65;48.778;9.160;2023-04-25T04:49:41;97865.00;;;7.88;94.20
141;BME280;65;48.778;9.160;2023-04-25T04:52:26;97867.28;;;7.94;94.73
141;BME280;65;48.778;9.160;2023-04-25T04:55:12;97873.31;;;7.97;94.82
141;BME280;65;48.778;9.160;2023-04-25T04:57:58;97875.09;;;7.96;95.00
141;BME280;65;48.778;9.160;2023-04-25T05:00:44;97875.75;;;8.00;95.69
141;BME280;65;48.778;9.160;2023-04-25T05:03:30;97877.44;;;8.01;94.05
141;BME280;65;48.778;9.160;2023-04-25T05:06:16;97881.41;;;8.08;95.03
141;BME280;65;48.778;9.160;2023-04-25T05:09:02;97883.56;;;8.17;92.89
141;BME280;65;48.778;9.160;2023-04-25T05:11:48;97876.59;;;8.16;93.27
141;BME280;65;48.778;9.160;2023-04-25T05:14:34;97879.25;;;8.30;91.85
141;BME280;65;48.778;9.160;2023-04-25T05:17:20;97884.94;;;8.38;91.64
141;BME280;65;48.778;9.160;2023-04-25T05:20:07;97886.28;;;8.45;91.87
141;BME280;65;48.778;9.160;2023-04-25T05:22:55;97889.69;;;8.62;90.80
141;BME280;65;48.778;9.160;2023-04-25T05:25:40;97890.66;;;8.75;89.95
141;BME280;65;48.778;9.160;2023-04-25T05:28:26;97893.69;;;8.83;87.87
141;BME280;65;48.778;9.160;2023-04-25T05:31:12;97891.13;;;8.96;86.49
141;BME280;65;48.778;9.160;2023-04-25T05:33:58;97889.25;;;8.98;86.24
141;BME280;65;48.778;9.160;2023-04-25T05:36:44;97892.91;;;8.95;85.71
141;BME280;65;48.778;9.160;2023-04-25T05:39:29;97897.06;;;9.13;85.82
141;BME280;65;48.778;9.160;2023-04-25T05:42:15;97896.88;;;9.16;84.10
141;BME280;65;48.778;9.160;2023-04-25T05:45:01;97892.25;;;9.06;86.95
141;BME280;65;48.778;9.160;2023-04-25T05:47:47;97894.72;;;8.95;90.66
141;BME280;65;48.778;9.160;2023-04-25T05:50:33;97894.53;;;8.98;89.20
141;BME280;65;48.778;9.160;2023-04-25T05:53:19;97901.13;;;8.91;87.20
141;BME280;65;48.778;9.160;2023-04-25T05:56:05;97896.31;;;8.97;85.10
141;BME280;65;48.778;9.160;2023-04-25T05:58:51;97895.66;;;8.79;84.68
141;BME280;65;48.778;9.160;2023-04-25T06:01:37;97891.19;;;8.66;85.19
141;BME280;65;48.778;9.160;2023-04-25T06:04:22;97898.75;;;8.72;82.38
141;BME280;65;48.778;9.160;2023-04-25T06:07:08;97891.03;;;8.69;82.55
141;BME280;65;48.778;9.160;2023-04-25T06:09:54;97895.28;;;8.71;82.96
141;BME280;65;48.778;9.160;2023-04-25T06:12:39;97900.13;;;8.63;83.95
141;BME280;65;48.778;9.160;2023-04-25T06:15:25;97897.31;;;8.66;84.23
141;BME280;65;48.778;9.160;2023-04-25T06:18:11;97896.13;;;8.72;83.07
141;BME280;65;48.778;9.160;2023-04-25T06:20:57;97894.25;;;8.74;84.20
141;BME280;65;48.778;9.160;2023-04-25T06:23:42;97887.56;;;8.82;86.71
141;BME280;65;48.778;9.160;2023-04-25T06:26:28;97887.84;;;8.92;85.60
141;BME280;65;48.778;9.160;2023-04-25T06:29:14;97877.38;;;9.05;82.88
141;BME280;65;48.778;9.160;2023-04-25T06:32:00;97887.16;;;9.17;81.30
141;BME280;65;48.778;9.160;2023-04-25T06:34:45;97880.47;;;9.11;82.91
141;BME280;65;48.778;9.160;2023-04-25T06:37:31;97872.41;;;9.29;82.20
141;BME280;65;48.778;9.160;2023-04-25T06:40:17;97881.41;;;9.39;81.26
141;BME280;65;48.778;9.160;2023-04-25T06:43:02;97894.59;;;9.39;82.95
141;BME280;65;48.778;9.160;2023-04-25T06:45:48;97894.13;;;9.18;84.37
141;BME280;65;48.778;9.160;2023-04-25T06:48:34;97896.59;;;9.07;85.33
141;BME280;65;48.778;9.160;2023-04-25T06:51:19;97885.41;;;8.89;87.70
141;BME280;65;48.778;9.160;2023-04-25T06:54:05;97889.44;;;8.95;87.74
141;BME280;65;48.778;9.160;2023-04-25T06:56:51;97889.44;;;9.09;88.00
141;BME280;65;48.778;9.160;2023-04-25T06:59:37;97891.03;;;8.97;88.07
141;BME280;65;48.778;9.160;2023-04-25T07:02:23;97884.63;;;8.87;89.54
141;BME280;65;48.778;9.160;2023-04-25T07:05:08;97883.41;;;8.78;90.83
141;BME280;65;48.778;9.160;2023-04-25T07:07:54;97888.97;;;8.74;93.68
141;BME280;65;48.778;9.160;2023-04-25T07:10:40;97894.53;;;8.69;93.55
141;BME280;65;48.778;9.160;2023-04-25T07:13:26;97891.28;;;8.64;95.26
141;BME280;65;48.778;9.160;2023-04-25T07:16:12;97901.38;;;8.72;95.92
141;BME280;65;48.778;9.160;2023-04-25T07:19:06;97900.16;;;8.77;96.15
141;BME280;65;48.778;9.160;2023-04-25T07:21:52;97904.22;;;8.83;97.54
141;BME280;65;48.778;9.160;2023-04-25T07:24:38;97904.59;;;8.91;95.46
141;BME280;65;48.778;9.160;2023-04-25T07:27:24;97903.84;;;8.89;95.94
141;BME280;65;48.778;9.160;2023-04-25T07:30:10;97907.41;;;8.88;94.79
141;BME280;65;48.778;9.160;2023-04-25T07:32:56;97911.38;;;8.81;96.23
141;BME280;65;48.778;9.160;2023-04-25T07:35:42;97912.50;;;8.77;98.55
141;BME280;65;48.778;9.160;2023-04-25T07:38:27;97913.13;;;8.66;99.69
141;BME280;65;48.778;9.160;2023-04-25T07:41:13;97912.25;;;8.51;100.00
141;BME280;65;48.778;9.160;2023-04-25T07:43:59;97918.91;;;8.43;100.00
141;BME280;65;48.778;9.160;2023-04-25T07:46:45;97921.47;;;8.29;100.00
141;BME280;65;48.778;9.160;2023-04-25T07:49:30;97913.84;;;8.24;100.00
141;BME280;65;48.778;9.160;2023-04-25T07:52:16;97925.56;;;8.18;100.00
141;BME280;65;48.778;9.160;2023-04-25T07:55:02;97935.94;;;8.21;100.00
141;BME280;65;48.778;9.160;2023-04-25T07:57:48;97933.91;;;8.11;100.00
141;BME280;65;48.778;9.160;2023-04-25T08:00:34;97933.13;;;8.09;100.00
141;BME280;65;48.778;9.160;2023-04-25T08:03:20;97933.91;;;7.95;100.00
141;BME280;65;48.778;9.160;2023-04-25T08:06:07;97941.16;;;7.76;100.00
141;BME280;65;48.778;9.160;2023-04-25T08:08:53;97944.22;;;7.68;100.00
141;BME280;65;48.778;9.160;2023-04-25T08:11:39;97956.25;;;7.72;100.00
141;BME280;65;48.778;9.160;2023-04-25T08:14:25;97954.97;;;7.79;100.00
141;BME280;65;48.778;9.160;2023-04-25T08:17:11;97955.47;;;7.86;100.00
141;BME280;65;48.778;9.160;2023-04-25T08:19:56;97954.03;;;7.80;100.00
141;BME280;65;48.778;9.160;2023-04-25T08:22:42;97963.97;;;7.75;100.00
141;BME280;65;48.778;9.160;2023-04-25T08:25:28;97966.00;;;7.86;100.00
141;BME280;65;48.778;9.160;2023-04-25T08:28:14;97970.00;;;7.77;100.00
141;BME280;65;48.778;9.160;2023-04-25T08:31:00;97971.88;;;7.75;100.00
141;BME280;65;48.778;9.160;2023-04-25T08:33:46;97978.47;;;7.82;100.00
141;BME280;65;48.778;9.160;2023-04-25T08:36:32;97980.34;;;7.96;100.00
141;BME280;65;48.778;9.160;2023-04-25T08:39:18;97986.09;;;8.03;100.00
141;BME280;65;48.778;9.160;2023-04-25T08:42:06;97986.09;;;8.03;100.00
141;BME280;65;48.778;9.160;2023-04-25T08:44:56;97986.88;;;8.05;100.00
141;BME280;65;48.778;9.160;2023-04-25T08:47:43;97987.13;;;8.16;100.00
141;BME280;65;48.778;9.160;2023-04-25T08:50:31;97990.53;;;8.18;100.00
141;BME280;65;48.778;9.160;2023-04-25T08:53:30;97995.19;;;8.29;100.00
141;BME280;65;48.778;9.160;2023-04-25T08:56:16;97994.03;;;8.34;100.00
141;BME280;65;48.778;9.160;2023-04-25T08:59:03;98004.81;;;8.14;100.00
141;BME280;65;48.778;9.160;2023-04-25T09:01:49;98009.88;;;8.01;100.00
141;BME280;65;48.778;9.160;2023-04-25T09:04:35;98007.34;;;7.84;100.00
141;BME280;65;48.778;9.160;2023-04-25T10:36:20;98138.88;;;7.34;100.00
141;BME280;65;48.778;9.160;2023-04-25T10:39:07;98139.78;;;7.33;100.00
141;BME280;65;48.778;9.160;2023-04-25T10:41:58;98145.06;;;7.33;100.00
141;BME280;65;48.778;9.160;2023-04-25T10:52:13;98168.16;;;7.09;100.00
141;BME280;65;48.778;9.160;2023-04-25T10:54:59;98168.88;;;7.12;100.00
141;BME280;65;48.778;9.160;2023-04-25T10:57:45;98175.44;;;7.21;100.00
141;BME280;65;48.778;9.160;2023-04-25T11:00:35;98173.50;;;7.42;100.00
141;BME280;65;48.778;9.160;2023-04-25T11:03:25;98182.94;;;7.46;100.00
141;BME280;65;48.778;9.160;2023-04-25T11:06:22;98186.81;;;7.39;100.00
141;BME280;65;48.778;9.160;2023-04-25T11:09:11;98192.00;;;7.57;100.00
141;BME280;65;48.778;9.160;2023-04-25T11:30:31;98198.72;;;7.28;100.00
141;BME280;65;48.778;9.160;2023-04-25T11:33:16;98197.41;;;7.37;100.00
141;BME280;65;48.778;9.160;2023-04-25T11:36:02;98188.28;;;7.44;100.00
141;BME280;65;48.778;9.160;2023-04-25T11:38:48;98193.59;;;7.25;100.00
141;BME280;65;48.778;9.160;2023-04-25T11:45:31;98202.56;;;7.39;100.00
141;BME280;65;48.778;9.160;2023-04-25T11:48:20;98203.59;;;7.71;100.00
141;BME280;65;48.778;9.160;2023-04-25T11:51:06;98204.00;;;7.63;100.00
141;BME280;65;48.778;9.160;2023-04-25T11:53:52;98205.06;;;7.42;100.00
141;BME280;65;48.778;9.160;2023-04-25T11:56:45;98219.28;;;7.38;100.00
141;BME280;65;48.778;9.160;2023-04-25T11:59:31;98212.00;;;7.43;100.00
141;BME280;65;48.778;9.160;2023-04-25T12:02:25;98223.69;;;7.37;100.00
141;BME280;65;48.778;9.160;2023-04-25T12:05:14;98224.88;;;7.66;100.00
141;BME280;65;48.778;9.160;2023-04-25T12:08:12;98212.19;;;7.74;100.00
141;BME280;65;48.778;9.160;2023-04-25T12:10:57;98220.75;;;7.95;100.00
141;BME280;65;48.778;9.160;2023-04-25T12:13:43;98210.28;;;8.11;100.00
141;BME280;65;48.778;9.160;2023-04-25T12:16:29;98211.25;;;8.08;100.00
141;BME280;65;48.778;9.160;2023-04-25T12:19:16;98216.00;;;8.02;100.00
141;BME280;65;48.778;9.160;2023-04-25T12:22:03;98223.22;;;7.98;100.00
141;BME280;65;48.778;9.160;2023-04-25T12:24:49;98225.91;;;7.97;100.00
141;BME280;65;48.778;9.160;2023-04-25T12:27:35;98223.53;;;8.09;100.00
141;BME280;65;48.778;9.160;2023-04-25T12:30:21;98229.78;;;8.07;100.00
141;BME280;65;48.778;9.160;2023-04-25T12:33:07;98230.16;;;8.16;100.00
141;BME280;65;48.778;9.160;2023-04-25T12:35:53;98235.34;;;8.35;100.00
141;BME280;65;48.778;9.160;2023-04-25T12:38:41;98233.16;;;8.26;100.00
141;BME280;65;48.778;9.160;2023-04-25T12:41:27;98233.16;;;8.59;100.00
141;BME280;65;48.778;9.160;2023-04-25T12:44:13;98235.66;;;8.94;100.00
141;BME280;65;48.778;9.160;2023-04-25T12:46:59;98236.31;;;9.29;100.00
141;BME280;65;48.778;9.160;2023-04-25T12:49:45;98232.38;;;9.66;95.82
141;BME280;65;48.778;9.160;2023-04-25T12:52:31;98235.81;;;9.52;99.40
141;BME280;65;48.778;9.160;2023-04-25T12:55:17;98236.59;;;9.84;100.00
141;BME280;65;48.778;9.160;2023-04-25T12:58:02;98231.41;;;10.41;95.08
141;BME280;65;48.778;9.160;2023-04-25T13:00:48;98238.13;;;10.88;94.96
141;BME280;65;48.778;9.160;2023-04-25T13:03:34;98236.47;;;10.72;92.95
141;BME280;65;48.778;9.160;2023-04-25T13:06:20;98237.72;;;11.35;88.79
141;BME280;65;48.778;9.160;2023-04-25T13:09:06;98239.09;;;11.01;94.05
141;BME280;65;48.778;9.160;2023-04-25T13:11:52;98220.59;;;11.67;89.29
141;BME280;65;48.778;9.160;2023-04-25T13:14:44;98222.91;;;12.24;92.80
141;BME280;65;48.778;9.160;2023-04-25T13:17:29;98225.19;;;12.67;89.40
141;BME280;65;48.778;9.160;2023-04-25T13:20:15;98231.50;;;11.63;85.16
141;BME280;65;48.778;9.160;2023-04-25T13:23:07;98236.75;;;10.68;91.59
141;BME280;65;48.778;9.160;2023-04-25T13:25:53;98235.06;;;10.67;99.45
141;BME280;65;48.778;9.160;2023-04-25T13:28:40;98233.69;;;11.02;96.13
141;BME280;65;48.778;9.160;2023-04-25T13:31:26;98237.41;;;10.71;95.21
141;BME280;65;48.778;9.160;2023-04-25T13:34:12;98235.09;;;10.94;92.19
141;BME280;65;48.778;9.160;2023-04-25T13:36:58;98230.50;;;10.83;89.69
141;BME280;65;48.778;9.160;2023-04-25T13:39:43;98232.34;;;10.54;94.04
141;BME280;65;48.778;9.160;2023-04-25T13:42:29;98229.31;;;10.32;93.03
141;BME280;65;48.778;9.160;2023-04-25T13:45:15;98235.59;;;10.01;95.73
141;BME280;65;48.778;9.160;2023-04-25T13:48:01;98246.38;;;9.52;100.00
141;BME280;65;48.778;9.160;2023-04-25T13:50:47;98235.91;;;9.50;100.00
141;BME280;65;48.778;9.160;2023-04-25T13:53:32;98245.75;;;9.93;100.00
141;BME280;65;48.778;9.160;2023-04-25T13:56:18;98245.22;;;10.16;99.09
141;BME280;65;48.778;9.160;2023-04-25T13:59:05;98245.38;;;11.13;89.75
141;BME280;65;48.778;9.160;2023-04-25T14:01:51;98238.50;;;11.10;86.53
141;BME280;65;48.778;9.160;2023-04-25T14:04:37;98240.53;;;10.78;94.48
141;BME280;65;48.778;9.160;2023-04-25T14:07:22;98241.13;;;11.10;88.77
141;BME280;65;48.778;9.160;2023-04-25T14:10:08;98244.63;;;10.96;93.36
141;BME280;65;48.778;9.160;2023-04-25T14:12:54;98237.94;;;11.59;88.45
141;BME280;65;48.778;9.160;2023-04-25T14:15:40;98236.69;;;12.42;80.04
141;BME280;65;48.778;9.160;2023-04-25T14:18:26;98234.97;;;13.03;76.78
141;BME280;65;48.778;9.160;2023-04-25T14:21:11;98233.47;;;13.12;74.50
141;BME280;65;48.778;9.160;2023-04-25T14:23:57;98234.22;;;12.14;76.12
141;BME280;65;48.778;9.160;2023-04-25T14:26:43;98238.03;;;11.57;75.03
141;BME280;65;48.778;9.160;2023-04-25T14:29:29;98235.84;;;11.64;79.15
141;BME280;65;48.778;9.160;2023-04-25T14:32:15;98235.22;;;12.25;76.82
141;BME280;65;48.778;9.160;2023-04-25T14:35:29;98242.31;;;11.72;73.85
141;BME280;65;48.778;9.160;2023-04-25T14:38:14;98242.06;;;11.36;73.36
141;BME280;65;48.778;9.160;2023-04-25T14:41:00;98243.69;;;11.12;78.50
141;BME280;65;48.778;9.160;2023-04-25T14:43:46;98250.38;;;11.17;82.07
141;BME280;65;48.778;9.160;2023-04-25T14:46:32;98249.75;;;10.99;77.50
141;BME280;65;48.778;9.160;2023-04-25T14:49:18;98247.50;;;10.79;79.08
141;BME280;65;48.778;9.160;2023-04-25T14:52:04;98246.75;;;10.77;87.22
141;BME280;65;48.778;9.160;2023-04-25T14:54:50;98249.84;;;10.84;80.88
141;BME280;65;48.778;9.160;2023-04-25T14:57:35;98249.41;;;11.18;81.50
141;BME280;65;48.778;9.160;2023-04-25T15:03:59;98243.41;;;12.72;73.41
141;BME280;65;48.778;9.160;2023-04-25T15:06:45;98246.16;;;12.95;72.03
141;BME280;65;48.778;9.160;2023-04-25T15:09:31;98248.84;;;12.70;72.27
141;BME280;65;48.778;9.160;2023-04-25T15:12:17;98242.09;;;12.28;77.78
141;BME280;65;48.778;9.160;2023-04-25T15:15:03;98250.31;;;11.98;74.44
141;BME280;65;48.778;9.160;2023-04-25T15:17:56;98255.72;;;11.57;78.63
141;BME280;65;48.778;9.160;2023-04-25T15:20:43;98255.00;;;11.14;78.42
141;BME280;65;48.778;9.160;2023-04-25T15:23:29;98255.22;;;10.96;80.98
141;BME280;65;48.778;9.160;2023-04-25T15:26:15;98255.81;;;10.87;80.04
141;BME280;65;48.778;9.160;2023-04-25T15:29:01;98263.56;;;10.76;83.56
141;BME280;65;48.778;9.160;2023-04-25T15:31:48;98259.63;;;10.55;85.90
141;BME280;65;48.778;9.160;2023-04-25T15:34:34;98258.31;;;10.48;86.26
141;BME280;65;48.778;9.160;2023-04-25T15:37:20;98265.38;;;10.61;83.67
141;BME280;65;48.778;9.160;2023-04-25T15:42:55;98262.13;;;10.85;79.57
141;BME280;65;48.778;9.160;2023-04-25T15:45:41;98262.31;;;10.82;77.98
141;BME280;65;48.778;9.160;2023-04-25T15:48:27;98267.41;;;10.85;78.29
141;BME280;65;48.778;9.160;2023-04-25T15:51:12;98264.00;;;11.11;81.54
141;BME280;65;48.778;9.160;2023-04-25T15:53:58;98270.78;;;11.15;81.45
141;BME280;65;48.778;9.160;2023-04-25T15:56:44;98278.06;;;10.97;76.24
141;BME280;65;48.778;9.160;2023-04-25T15:59:30;98272.25;;;10.64;78.54
141;BME280;65;48.778;9.160;2023-04-25T16:02:16;98275.75;;;10.64;81.02
141;BME280;65;48.778;9.160;2023-04-25T16:05:02;98273.31;;;10.61;80.98
141;BME280;65;48.778;9.160;2023-04-25T16:07:50;98274.34;;;10.44;79.86
141;BME280;65;48.778;9.160;2023-04-25T16:10:38;98275.28;;;10.58;82.09
141;BME280;65;48.778;9.160;2023-04-25T16:13:23;98273.31;;;10.61;81.85
141;BME280;65;48.778;9.160;2023-04-25T16:16:11;98271.50;;;10.62;81.87
141;BME280;65;48.778;9.160;2023-04-25T16:18:57;98272.75;;;10.56;82.72
141;BME280;65;48.778;9.160;2023-04-25T16:21:42;98274.34;;;10.44;80.02
141;BME280;65;48.778;9.160;2023-04-25T16:24:28;98267.72;;;10.37;84.71
141;BME280;65;48.778;9.160;2023-04-25T16:27:14;98268.41;;;10.41;78.82
141;BME280;65;48.778;9.160;2023-04-25T16:30:01;98275.72;;;10.36;77.49
141;BME280;65;48.778;9.160;2023-04-25T16:32:47;98280.91;;;10.37;79.59
141;BME280;65;48.778;9.160;2023-04-25T16:35:33;98276.56;;;10.36;76.43
141;BME280;65;48.778;9.160;2023-04-25T16:38:18;98285.75;;;10.45;78.64
141;BME280;65;48.778;9.160;2023-04-25T16:41:05;98283.03;;;10.47;77.60
141;BME280;65;48.778;9.160;2023-04-25T16:43:51;98283.22;;;10.43;77.05
141;BME280;65;48.778;9.160;2023-04-25T16:46:36;98281.53;;;10.42;80.46
141;BME280;65;48.778;9.160;2023-04-25T16:49:22;98290.75;;;10.50;81.69
141;BME280;65;48.778;9.160;2023-04-25T16:52:08;98292.09;;;10.42;79.67
141;BME280;65;48.778;9.160;2023-04-25T16:54:54;98295.91;;;10.37;77.25
141;BME280;65;48.778;9.160;2023-04-25T16:57:39;98297.16;;;10.01;79.85
141;BME280;65;48.778;9.160;2023-04-25T17:00:25;98300.34;;;9.92;82.52
141;BME280;65;48.778;9.160;2023-04-25T17:03:11;98300.69;;;9.86;82.97
141;BME280;65;48.778;9.160;2023-04-25T17:05:57;98297.03;;;9.89;80.12
141;BME280;65;48.778;9.160;2023-04-25T17:08:45;98303.06;;;9.91;82.90
141;BME280;65;48.778;9.160;2023-04-25T17:11:31;98314.22;;;9.80;83.85
141;BME280;65;48.778;9.160;2023-04-25T17:14:17;98310.31;;;9.87;83.02
141;BME280;65;48.778;9.160;2023-04-25T17:17:02;98311.50;;;9.81;83.61
141;BME280;65;48.778;9.160;2023-04-25T17:19:48;98314.59;;;9.74;86.69
141;BME280;65;48.778;9.160;2023-04-25T17:22:34;98317.09;;;9.61;86.55
141;BME280;65;48.778;9.160;2023-04-25T17:25:21;98327.22;;;9.53;89.59
141;BME280;65;48.778;9.160;2023-04-25T17:28:07;98332.50;;;9.53;87.19
141;BME280;65;48.778;9.160;2023-04-25T17:30:53;98335.06;;;9.39;89.70
141;BME280;65;48.778;9.160;2023-04-25T17:33:39;98335.16;;;9.37;90.65
141;BME280;65;48.778;9.160;2023-04-25T17:36:24;98342.22;;;9.37;89.17
141;BME280;65;48.778;9.160;2023-04-25T17:39:10;98345.78;;;9.36;89.14
141;BME280;65;48.778;9.160;2023-04-25T17:41:56;98350.88;;;9.23;88.23
141;BME280;65;48.778;9.160;2023-04-25T17:44:42;98360.56;;;9.07;88.54
141;BME280;65;48.778;9.160;2023-04-25T17:47:28;98359.59;;;8.92;92.00
141;BME280;65;48.778;9.160;2023-04-25T17:50:13;98372.22;;;8.70;94.61
141;BME280;65;48.778;9.160;2023-04-25T17:53:01;98372.41;;;8.49;99.63
141;BME280;65;48.778;9.160;2023-04-25T17:55:49;98384.50;;;8.36;100.00
141;BME280;65;48.778;9.160;2023-04-25T17:58:35;98388.22;;;7.96;100.00